Wetherby, United Kingdom
Current Conditions -  °F | °C
As of 3:50 PM on Tuesday 21 Oct 2014 (Local Time) from EGXU Reporting Station
Few Clouds Few Clouds  
Wind Chill: 52°   Ceiling: Unl
Heat Index: 52°   Visibility: 6mi
Dew Point: 32°   Wind: 28mph
Humidity: 47%   Direction: 300°WNW
Pressure: 29.62"   Gusts: 40mph
Location:  53.93°N, 1.39°W
Report Text: EGXU 211450Z 30024G35KT 9999 FEW042 11/M00 Q1003 BLU
Loading
Personal Weather Stations






























Interactive Weather Map
Tropical Storm Tracking
New forecast layout! Learn more

10-Day Weather Forecast

Advertisements
Track Severe Weather on mobile